Pagrindinis puslapis
METAR-TAF:

METAR-TAF

Oro uostai :

Ängelholm–Helsingborg

Helsingborgas, Švedija

platuma: 56-17-46N, ilguma: 012-50-50E, Aukštis: 21 m

Dabartinis oras

Ataskaita buvo paskelbta 29 minutes, ne 05:20 UTC
Vėjas 13 kt iš Rytų
Temperatūra 15°C
Drėgmė 63%
Slėgis 1013 hPa
Matomumas 10 km arba daugiau
nėra debesų žemiau 1500 m ir nėra kamuolinių lietaus debesų

METAR: ESTA 220520Z 10013KT CAVOK 15/08 Q1013

Laikas: 07:49 (05:49 UTC)

Prognozė

Ataskaita buvo paskelbta 1 valandą ir 39 minutes, ne 04:10 UTC
Prognozė galioja nuo 22 metu 05 UTC su 22 metu 12 UTC
Vėjas 15 kt iš Rytų
Matomumas 10 km arba daugiau
nėra debesų žemiau 1500 m ir nėra kamuolinių lietaus debesų
Laikinai
nuo 22 metu 06 UTC su 22 metu 12 UTC
Vėjas 15 kt iš Rytų su gūsio iki 25 kt

TAF: ESTA 220410Z 2205/2212 09015KT CAVOK TEMPO 2206/2212 09015G25KT

Orai ataskaitas ir orų prognozės (METAR, TAF).

turimą stotys yra geltonos ir raudonos taškus žemėlapyje.

Perkelti pele per norėdami pamatyti stoties vardą.

Tada spustelėkite, norėdami matyti oro stebėjimo ir prognozės.

Norėdami pakeisti žemėlapį: spustelėkite ant žalios mygtukų su juodo kryžiaus žemyn,; žalią mygtuką su brūkšneliu, jei norite nutolinti; arba žalių rodyklių gretimoms žemėlapius.


METAR-TAF: